METAR Data
IDs: Format: Raw Decoded Include TAF

Data at: 1657 UTC 18 Feb 2019

METAR for:KCCY (Charles City/NE Iowa, IA, US)
Text:KCCY 181655Z AUTO 35005KT 10SM BKN021 M12/M15 A3042 RMK AO2
Temperature:-12.0°C ( 10°F)
Dewpoint:-15.0°C ( 5°F) [RH = 78%]
Pressure (altimeter):30.42 inches Hg (1030.2 mb)
Winds:from the N (350 degrees) at 6 MPH (5 knots; 2.6 m/s)
Visibility:10 or more sm (16+ km)
Ceiling:2100 feet AGL
Clouds: broken clouds at 2100 feet AGL
QC Flag:automated observation with no human augmentation